createdAt,value
2023-07-31T00:00:45.624Z,17.15
2023-07-31T00:04:57.305Z,17.20
2023-07-31T00:09:08.999Z,17.18
2023-07-31T00:13:20.884Z,17.17
2023-07-31T00:17:32.579Z,17.25
2023-07-31T00:21:45.457Z,17.17
2023-07-31T00:25:57.226Z,17.16
2023-07-31T00:30:09.085Z,17.22
2023-07-31T00:34:20.832Z,17.19
2023-07-31T00:38:32.554Z,17.20
2023-07-31T00:42:44.978Z,17.20
2023-07-31T00:46:57.345Z,17.22
2023-07-31T00:51:09.431Z,17.28
2023-07-31T00:55:22.987Z,17.35
2023-07-31T00:59:34.980Z,17.29
2023-07-31T01:03:48.761Z,17.38
2023-07-31T01:08:03.394Z,17.46
2023-07-31T01:12:17.697Z,17.50
2023-07-31T01:16:29.764Z,17.54
2023-07-31T01:20:43.617Z,17.60
2023-07-31T01:25:13.572Z,17.60
2023-07-31T01:29:50.342Z,17.65
2023-07-31T01:34:03.067Z,17.67
2023-07-31T01:38:15.560Z,17.62
2023-07-31T01:42:27.280Z,17.55
2023-07-31T01:46:39.384Z,17.61
2023-07-31T01:50:51.440Z,17.61
2023-07-31T01:55:03.195Z,17.65
2023-07-31T01:59:15.260Z,17.62
2023-07-31T02:03:27.138Z,17.62
2023-07-31T02:07:38.865Z,17.52
2023-07-31T02:11:50.692Z,17.51
2023-07-31T02:16:02.494Z,17.56
2023-07-31T02:20:14.302Z,17.52
2023-07-31T02:24:26.275Z,17.48
2023-07-31T02:28:38.506Z,17.44
2023-07-31T02:32:50.250Z,17.40
2023-07-31T02:37:01.942Z,17.42
2023-07-31T02:41:13.641Z,17.45
2023-07-31T02:45:25.376Z,17.34
2023-07-31T02:49:37.178Z,17.46
2023-07-31T02:53:49.206Z,17.44
2023-07-31T02:58:00.924Z,17.43
2023-07-31T03:02:14.328Z,17.47
2023-07-31T03:06:27.369Z,17.43
2023-07-31T03:10:39.098Z,17.51
2023-07-31T03:14:50.878Z,17.50
2023-07-31T03:19:02.630Z,17.48
2023-07-31T03:23:14.422Z,17.48
2023-07-31T03:27:26.094Z,17.37
2023-07-31T03:31:37.802Z,17.44
2023-07-31T03:35:49.547Z,17.40
2023-07-31T03:40:01.341Z,17.40
2023-07-31T03:44:12.960Z,17.43
2023-07-31T03:48:24.683Z,17.43
2023-07-31T03:52:36.442Z,17.42
2023-07-31T03:56:48.105Z,17.37
2023-07-31T04:01:00.049Z,17.26
2023-07-31T04:05:12.106Z,17.39
2023-07-31T04:09:23.860Z,17.38
2023-07-31T04:13:35.515Z,17.39
2023-07-31T04:17:47.188Z,17.38
2023-07-31T04:21:59.038Z,17.41
2023-07-31T04:26:10.661Z,17.42
2023-07-31T04:30:22.313Z,17.37
2023-07-31T04:34:33.972Z,17.43
2023-07-31T04:38:45.715Z,17.38
2023-07-31T04:42:57.515Z,17.44
2023-07-31T04:47:09.225Z,17.48
2023-07-31T04:51:22.273Z,17.53
2023-07-31T04:55:33.993Z,17.53
2023-07-31T04:59:46.135Z,17.47
2023-07-31T05:03:58.545Z,17.52
2023-07-31T05:08:10.357Z,17.48
2023-07-31T05:12:22.095Z,17.49
2023-07-31T05:16:33.897Z,17.46
2023-07-31T05:20:45.667Z,17.47
2023-07-31T05:24:57.435Z,17.48
2023-07-31T05:29:09.132Z,17.50
2023-07-31T05:33:20.898Z,17.43
2023-07-31T05:37:32.651Z,17.42
2023-07-31T05:41:44.337Z,17.37
2023-07-31T05:45:56.054Z,17.30
2023-07-31T05:50:08.037Z,17.25
2023-07-31T05:54:19.798Z,17.19
2023-07-31T05:58:31.550Z,17.18
2023-07-31T06:02:43.269Z,17.16
2023-07-31T06:06:55.169Z,17.20
2023-07-31T06:11:07.276Z,17.20
2023-07-31T06:15:21.885Z,17.28
2023-07-31T06:19:33.615Z,17.27
2023-07-31T06:23:45.323Z,17.32
2023-07-31T06:27:57.046Z,17.35
2023-07-31T06:32:09.093Z,17.43
2023-07-31T06:36:20.847Z,17.41
2023-07-31T06:40:32.585Z,17.41
2023-07-31T06:44:44.304Z,17.51
2023-07-31T06:48:56.250Z,17.58
2023-07-31T06:53:07.980Z,17.62
2023-07-31T06:57:19.700Z,17.64
2023-07-31T07:01:31.466Z,17.62
2023-07-31T07:05:43.240Z,17.63
2023-07-31T07:09:55.011Z,17.65
2023-07-31T07:14:06.750Z,17.69
2023-07-31T07:18:18.889Z,17.80
2023-07-31T07:22:31.549Z,17.87
2023-07-31T07:26:43.272Z,17.91
2023-07-31T07:30:56.574Z,17.95
2023-07-31T07:35:08.627Z,17.91
2023-07-31T07:39:20.278Z,17.96
2023-07-31T07:43:31.965Z,17.90
2023-07-31T07:47:43.808Z,17.88
2023-07-31T07:51:55.509Z,17.89
2023-07-31T07:56:07.263Z,17.88
2023-07-31T08:00:19.448Z,17.94
2023-07-31T08:04:32.218Z,17.96
2023-07-31T08:08:43.899Z,18.00
2023-07-31T08:12:55.532Z,18.00
2023-07-31T08:17:07.506Z,18.05
2023-07-31T08:21:19.398Z,18.11
2023-07-31T08:25:31.190Z,18.19
2023-07-31T08:29:42.927Z,18.29
2023-07-31T08:33:54.705Z,18.31
2023-07-31T08:38:06.501Z,18.30
2023-07-31T08:42:18.256Z,18.30
2023-07-31T08:46:30.972Z,18.39
2023-07-31T08:50:43.449Z,18.50
2023-07-31T08:54:55.198Z,18.60
2023-07-31T08:59:07.557Z,18.65
2023-07-31T09:03:19.977Z,18.66
2023-07-31T09:07:34.234Z,18.72
2023-07-31T09:11:46.113Z,18.69
2023-07-31T09:15:57.795Z,18.67
2023-07-31T09:20:21.622Z,18.63
2023-07-31T09:24:35.965Z,18.61
2023-07-31T09:28:47.712Z,18.62
2023-07-31T09:33:07.226Z,18.71
2023-07-31T09:37:20.109Z,18.70
2023-07-31T09:41:32.462Z,18.76
2023-07-31T09:45:45.635Z,18.85
2023-07-31T09:49:57.458Z,18.80
2023-07-31T09:54:13.540Z,18.83
2023-07-31T09:58:29.196Z,18.84
2023-07-31T10:02:41.233Z,18.91
2023-07-31T10:06:54.875Z,18.95
2023-07-31T10:11:10.792Z,18.97
2023-07-31T10:15:23.115Z,18.96
2023-07-31T10:19:36.162Z,19.05
2023-07-31T10:23:50.282Z,19.11
2023-07-31T10:28:02.325Z,19.24
2023-07-31T10:32:15.530Z,19.31
2023-07-31T10:36:28.164Z,19.25
2023-07-31T10:40:40.428Z,19.32
2023-07-31T10:44:57.648Z,19.31
2023-07-31T10:49:09.399Z,19.37
2023-07-31T10:53:26.734Z,19.46
2023-07-31T10:57:38.443Z,19.58
2023-07-31T11:02:03.741Z,19.63
2023-07-31T11:06:18.565Z,19.69
2023-07-31T11:10:31.006Z,19.67
2023-07-31T11:14:42.656Z,19.72
2023-07-31T11:18:57.044Z,19.69
2023-07-31T11:23:11.466Z,19.75
2023-07-31T11:27:23.179Z,19.67
2023-07-31T11:31:40.433Z,19.59
2023-07-31T11:35:52.133Z,19.61
2023-07-31T11:40:04.694Z,19.61
2023-07-31T11:48:57.784Z,19.82
2023-07-31T11:53:10.581Z,19.87
2023-07-31T12:06:59.124Z,19.88
2023-07-31T12:11:21.323Z,19.92
2023-07-31T12:21:05.205Z,20.10
2023-07-31T12:25:27.450Z,20.05
2023-07-31T12:30:10.320Z,20.14
2023-07-31T12:34:25.489Z,20.08
2023-07-31T12:38:47.926Z,20.00
2023-07-31T12:43:25.840Z,19.95
2023-07-31T12:47:43.345Z,19.91
2023-07-31T12:56:38.986Z,19.73
2023-07-31T13:05:32.844Z,19.85
2023-07-31T13:10:03.275Z,19.98
2023-07-31T13:14:27.883Z,20.16
2023-07-31T13:18:41.841Z,20.25
2023-07-31T13:27:28.906Z,20.33
2023-07-31T13:31:40.668Z,20.44
2023-07-31T13:35:52.514Z,20.53
2023-07-31T13:40:06.140Z,20.53
2023-07-31T13:44:18.105Z,20.44
2023-07-31T13:48:29.756Z,20.40
2023-07-31T13:52:41.513Z,20.33
2023-07-31T13:56:54.142Z,20.24
2023-07-31T14:01:05.997Z,20.19
2023-07-31T14:05:17.778Z,20.18
2023-07-31T14:09:29.668Z,20.07
2023-07-31T14:13:41.607Z,20.03
2023-07-31T14:17:53.512Z,19.96
2023-07-31T14:22:11.546Z,19.97
2023-07-31T14:26:23.862Z,19.97
2023-07-31T14:30:35.700Z,19.98
2023-07-31T14:34:47.438Z,20.08
2023-07-31T14:38:59.181Z,20.01
2023-07-31T14:43:10.872Z,19.95
2023-07-31T14:47:22.627Z,19.79
2023-07-31T14:51:34.550Z,19.71
2023-07-31T14:55:46.266Z,19.66
2023-07-31T14:59:57.943Z,19.62
2023-07-31T15:04:09.677Z,19.64
2023-07-31T15:08:21.532Z,19.67
2023-07-31T15:12:33.373Z,19.73
2023-07-31T15:16:49.070Z,19.71
2023-07-31T15:21:00.719Z,19.73
2023-07-31T15:25:12.513Z,19.75
2023-07-31T15:29:24.216Z,19.71
2023-07-31T15:33:37.677Z,19.66
2023-07-31T15:37:50.943Z,19.67
2023-07-31T15:42:02.715Z,19.66
2023-07-31T15:46:14.647Z,19.62
2023-07-31T15:50:26.397Z,19.56
2023-07-31T15:54:38.084Z,19.56
2023-07-31T15:58:51.556Z,19.57
2023-07-31T16:03:03.523Z,19.61
2023-07-31T16:07:15.369Z,19.62
2023-07-31T16:11:28.364Z,19.69
2023-07-31T16:15:40.082Z,19.69
2023-07-31T16:19:51.842Z,19.56
2023-07-31T16:24:03.680Z,19.50
2023-07-31T16:28:17.166Z,19.38
2023-07-31T16:32:29.209Z,19.15
2023-07-31T16:36:41.384Z,19.19
2023-07-31T16:40:53.369Z,19.18
2023-07-31T16:45:05.566Z,19.12
2023-07-31T16:49:17.219Z,19.06
2023-07-31T16:53:28.889Z,18.98
2023-07-31T16:57:40.626Z,18.98
2023-07-31T17:01:52.391Z,18.87
2023-07-31T17:06:04.090Z,18.84
2023-07-31T17:10:15.810Z,18.74
2023-07-31T17:14:27.531Z,18.75
2023-07-31T17:18:39.247Z,18.73
2023-07-31T17:22:50.938Z,18.72
2023-07-31T17:27:02.662Z,18.69
2023-07-31T17:31:14.438Z,18.69
2023-07-31T17:35:26.175Z,18.70
2023-07-31T17:39:37.938Z,18.65
2023-07-31T17:43:49.658Z,18.64
2023-07-31T17:48:01.635Z,18.66
2023-07-31T17:52:13.562Z,18.66
2023-07-31T17:56:25.349Z,18.66
2023-07-31T18:00:37.189Z,18.59
2023-07-31T18:04:48.992Z,18.56
2023-07-31T18:09:02.189Z,18.54
2023-07-31T18:13:15.250Z,18.59
2023-07-31T18:17:27.051Z,18.55
2023-07-31T18:21:39.267Z,18.51
2023-07-31T18:25:51.189Z,18.55
2023-07-31T18:30:03.344Z,18.48
2023-07-31T18:34:15.015Z,18.46
2023-07-31T18:38:26.696Z,18.42
2023-07-31T18:42:38.358Z,18.45
2023-07-31T18:46:50.073Z,18.52
2023-07-31T18:51:02.012Z,18.55
2023-07-31T18:55:13.729Z,18.51
2023-07-31T18:59:25.405Z,18.51
2023-07-31T19:03:38.380Z,18.56
2023-07-31T19:07:50.102Z,18.54
2023-07-31T19:12:02.156Z,18.57
2023-07-31T19:16:14.012Z,18.52
2023-07-31T19:20:25.879Z,18.59
2023-07-31T19:24:37.767Z,18.53
2023-07-31T19:28:50.862Z,18.54
2023-07-31T19:33:02.569Z,18.52
2023-07-31T19:37:19.160Z,18.44
2023-07-31T19:41:54.209Z,18.46
2023-07-31T19:51:56.960Z,18.50
2023-07-31T20:07:02.249Z,18.34
2023-07-31T20:11:44.471Z,18.25
2023-07-31T20:16:19.868Z,18.12
2023-07-31T20:20:57.067Z,18.15
2023-07-31T20:25:10.094Z,18.05
2023-07-31T20:29:21.879Z,17.87
2023-07-31T20:33:33.606Z,18.05
2023-07-31T20:37:45.884Z,18.01
2023-07-31T20:41:57.659Z,17.97
2023-07-31T20:46:09.400Z,18.00
2023-07-31T20:50:21.151Z,17.94
2023-07-31T20:54:32.854Z,17.97
2023-07-31T20:58:44.580Z,18.00
2023-07-31T21:02:56.574Z,17.94
2023-07-31T21:07:11.043Z,17.98
2023-07-31T21:11:22.713Z,17.92
2023-07-31T21:15:34.462Z,17.91
2023-07-31T21:19:46.789Z,17.81
2023-07-31T21:23:59.701Z,17.76
2023-07-31T21:28:14.287Z,17.71
2023-07-31T21:32:26.792Z,17.64
2023-07-31T21:36:38.618Z,17.53
2023-07-31T21:40:50.543Z,17.60
2023-07-31T21:45:02.265Z,17.55
2023-07-31T21:49:14.115Z,17.57
2023-07-31T21:53:25.906Z,17.50
2023-07-31T21:57:37.708Z,17.49
2023-07-31T22:01:49.425Z,17.45
2023-07-31T22:06:01.132Z,17.43
2023-07-31T22:10:12.786Z,17.44
2023-07-31T22:14:24.561Z,17.51
2023-07-31T22:18:36.205Z,17.52
2023-07-31T22:22:47.923Z,17.53
2023-07-31T22:26:59.569Z,17.53
2023-07-31T22:31:11.276Z,17.49
2023-07-31T22:35:23.024Z,17.47
2023-07-31T22:39:36.559Z,17.46
2023-07-31T22:43:48.310Z,17.45
2023-07-31T22:48:00.233Z,17.48
2023-07-31T22:52:12.047Z,17.53
2023-07-31T22:56:23.765Z,17.51
2023-07-31T23:00:35.601Z,17.52
2023-07-31T23:04:47.472Z,17.52
2023-07-31T23:08:59.208Z,17.59
2023-07-31T23:13:10.889Z,17.61
2023-07-31T23:17:22.765Z,17.57
2023-07-31T23:21:34.477Z,17.64
2023-07-31T23:25:49.752Z,17.61
2023-07-31T23:30:01.479Z,17.62
2023-07-31T23:34:13.208Z,17.61
2023-07-31T23:38:24.998Z,17.62
2023-07-31T23:42:36.670Z,17.63
2023-07-31T23:46:48.361Z,17.60
2023-07-31T23:51:00.669Z,17.61
2023-07-31T23:55:12.764Z,17.64
2023-07-31T23:59:24.523Z,17.64
